createdAt,value
2018-09-13T00:00:32.027Z,0.00
2018-09-13T00:01:32.018Z,0.00
2018-09-13T00:02:32.007Z,0.00
2018-09-13T00:03:32.038Z,0.00
2018-09-13T00:04:31.983Z,0.00
2018-09-13T00:05:31.983Z,0.00
2018-09-13T00:06:31.963Z,0.00
2018-09-13T00:07:31.956Z,0.00
2018-09-13T00:08:31.975Z,0.00
2018-09-13T00:09:31.929Z,0.00
2018-09-13T00:10:31.919Z,0.00
2018-09-13T00:11:31.919Z,0.00
2018-09-13T00:12:31.899Z,0.00
2018-09-13T00:13:31.927Z,0.00
2018-09-13T00:14:31.873Z,0.00
2018-09-13T00:15:31.877Z,0.00
2018-09-13T00:16:31.848Z,0.00
2018-09-13T00:17:31.859Z,0.00
2018-09-13T00:18:31.880Z,0.00
2018-09-13T00:19:31.827Z,0.00
2018-09-13T00:20:31.811Z,0.00
2018-09-13T00:21:31.802Z,0.00
2018-09-13T00:22:31.790Z,0.00
2018-09-13T00:23:31.825Z,0.00
2018-09-13T00:24:31.775Z,0.00
2018-09-13T00:25:31.750Z,0.00
2018-09-13T00:26:31.743Z,0.00
2018-09-13T00:27:31.738Z,0.00
2018-09-13T00:28:31.755Z,0.00
2018-09-13T00:29:31.751Z,0.00
2018-09-13T00:30:31.715Z,0.00
2018-09-13T00:31:31.695Z,0.00
2018-09-13T00:32:31.674Z,0.00
2018-09-13T00:33:31.676Z,0.00
2018-09-13T00:34:31.791Z,0.00
2018-09-13T00:35:31.643Z,0.00
2018-09-13T00:36:31.649Z,0.00
2018-09-13T00:37:31.619Z,0.00
2018-09-13T00:38:31.608Z,0.00
2018-09-13T00:39:31.660Z,0.00
2018-09-13T00:40:31.588Z,0.00
2018-09-13T00:41:31.579Z,0.00
2018-09-13T00:42:31.584Z,0.00
2018-09-13T00:43:31.553Z,0.00
2018-09-13T00:44:31.580Z,0.00
2018-09-13T00:45:31.536Z,0.00
2018-09-13T00:46:31.520Z,0.00
2018-09-13T00:47:31.511Z,0.00
2018-09-13T00:48:31.552Z,0.00
2018-09-13T00:49:31.473Z,0.00
2018-09-13T00:50:31.461Z,0.00
2018-09-13T00:51:31.489Z,0.00
2018-09-13T00:52:31.445Z,0.00
2018-09-13T00:53:31.442Z,0.00
2018-09-13T00:54:31.434Z,0.00
2018-09-13T00:55:31.407Z,0.00
2018-09-13T00:56:31.443Z,0.00
2018-09-13T00:57:31.385Z,0.00
2018-09-13T00:58:31.419Z,0.00
2018-09-13T00:59:31.375Z,0.00
2018-09-13T01:00:31.359Z,0.00
2018-09-13T01:01:31.348Z,0.00
2018-09-13T01:02:31.335Z,0.00
2018-09-13T01:03:31.355Z,0.00
2018-09-13T01:04:31.307Z,0.00
2018-09-13T01:05:31.297Z,0.00
2018-09-13T01:06:31.341Z,0.00
2018-09-13T01:07:31.286Z,0.00
2018-09-13T01:08:31.274Z,0.00
2018-09-13T01:09:31.280Z,0.00
2018-09-13T01:10:31.246Z,0.00
2018-09-13T01:11:31.237Z,0.00
2018-09-13T01:12:31.229Z,0.00
2018-09-13T01:13:31.211Z,0.00
2018-09-13T01:14:31.251Z,0.00
2018-09-13T01:15:31.195Z,0.00
2018-09-13T01:16:31.177Z,0.00
2018-09-13T01:17:31.158Z,0.00
2018-09-13T01:18:31.164Z,0.00
2018-09-13T01:19:31.183Z,0.00
2018-09-13T01:20:31.135Z,0.00
2018-09-13T01:21:31.175Z,0.00
2018-09-13T01:22:31.117Z,0.00
2018-09-13T01:23:31.106Z,0.00
2018-09-13T01:24:31.105Z,0.00
2018-09-13T01:25:31.091Z,0.00
2018-09-13T01:26:31.106Z,0.00
2018-09-13T01:27:31.097Z,0.00
2018-09-13T01:28:31.059Z,0.00
2018-09-13T01:29:31.037Z,0.00
2018-09-13T01:30:31.035Z,0.00
2018-09-13T01:31:31.017Z,0.00
2018-09-13T01:32:31.043Z,0.00
2018-09-13T01:33:31.008Z,0.00
2018-09-13T01:34:30.978Z,0.00
2018-09-13T01:35:30.971Z,0.00
2018-09-13T01:36:30.967Z,0.00
2018-09-13T01:37:30.983Z,0.00
2018-09-13T01:38:30.938Z,0.00
2018-09-13T01:39:30.927Z,0.00
2018-09-13T01:40:30.916Z,0.00
2018-09-13T01:41:30.899Z,0.00
2018-09-13T01:42:30.939Z,0.00
2018-09-13T01:43:30.882Z,0.00
2018-09-13T01:44:30.867Z,0.00
2018-09-13T01:45:30.864Z,0.00
2018-09-13T01:46:30.859Z,0.00
2018-09-13T01:47:30.861Z,0.00
2018-09-13T01:48:30.858Z,0.00
2018-09-13T01:49:30.816Z,0.00
2018-09-13T01:50:30.807Z,0.00
2018-09-13T01:51:30.790Z,0.00
2018-09-13T01:52:30.838Z,0.00
2018-09-13T01:53:30.757Z,0.00
2018-09-13T01:54:30.759Z,0.00
2018-09-13T01:55:30.741Z,0.00
2018-09-13T01:56:30.734Z,0.00
2018-09-13T01:57:30.756Z,0.00
2018-09-13T01:58:30.703Z,0.00
2018-09-13T01:59:30.693Z,0.00
2018-09-13T02:00:30.699Z,0.00
2018-09-13T02:01:30.675Z,0.00
2018-09-13T02:02:30.689Z,0.00
2018-09-13T02:03:30.653Z,0.00
2018-09-13T02:04:30.675Z,0.00
2018-09-13T02:05:30.629Z,0.00
2018-09-13T02:06:30.627Z,0.00
2018-09-13T02:07:30.609Z,0.00
2018-09-13T02:08:30.634Z,0.00
2018-09-13T02:09:30.594Z,0.00
2018-09-13T02:10:30.581Z,0.00
2018-09-13T02:11:30.565Z,0.00
2018-09-13T02:12:30.570Z,0.00
2018-09-13T02:13:30.575Z,0.00
2018-09-13T02:14:30.531Z,0.00
2018-09-13T02:15:30.521Z,0.00
2018-09-13T02:16:30.513Z,0.00
2018-09-13T02:17:30.500Z,0.00
2018-09-13T02:18:30.539Z,0.00
2018-09-13T02:19:30.507Z,0.00
2018-09-13T02:20:30.469Z,0.00
2018-09-13T02:21:30.459Z,0.00
2018-09-13T02:22:30.450Z,0.00
2018-09-13T02:23:30.428Z,0.00
2018-09-13T02:24:30.470Z,0.00
2018-09-13T02:25:30.399Z,0.00
2018-09-13T02:26:30.386Z,0.00
2018-09-13T02:27:30.384Z,0.00
2018-09-13T02:28:30.401Z,0.00
2018-09-13T02:29:30.357Z,0.00
2018-09-13T02:30:30.403Z,0.00
2018-09-13T02:31:30.331Z,0.00
2018-09-13T02:32:30.325Z,0.00
2018-09-13T02:33:30.309Z,0.00
2018-09-13T02:34:30.334Z,0.00
2018-09-13T02:35:30.297Z,0.00
2018-09-13T02:36:30.298Z,0.00
2018-09-13T02:37:30.272Z,0.00
2018-09-13T02:38:30.249Z,0.00
2018-09-13T02:39:30.293Z,0.00
2018-09-13T02:40:30.265Z,0.00
2018-09-13T02:41:30.272Z,0.00
2018-09-13T02:42:30.235Z,0.00
2018-09-13T02:43:30.199Z,0.00
2018-09-13T02:44:30.197Z,0.00
2018-09-13T02:45:30.208Z,0.00
2018-09-13T02:46:30.193Z,0.00
2018-09-13T02:47:30.161Z,0.00
2018-09-13T02:48:30.144Z,0.00
2018-09-13T02:49:30.137Z,0.00
2018-09-13T02:50:30.125Z,0.00
2018-09-13T02:51:30.157Z,0.00
2018-09-13T02:52:30.103Z,0.00
2018-09-13T02:53:30.081Z,0.00
2018-09-13T02:54:30.099Z,0.00
2018-09-13T02:55:30.066Z,0.00
2018-09-13T02:56:30.107Z,0.00
2018-09-13T02:57:30.049Z,0.00
2018-09-13T02:58:30.043Z,0.00
2018-09-13T02:59:30.039Z,0.00
2018-09-13T03:00:30.029Z,0.00
2018-09-13T03:01:30.047Z,0.00
2018-09-13T03:02:30.001Z,0.00
2018-09-13T03:03:29.981Z,0.00
2018-09-13T03:04:29.981Z,0.00
2018-09-13T03:05:29.957Z,0.00
2018-09-13T03:06:30.004Z,0.00
2018-09-13T03:07:29.975Z,0.00
2018-09-13T03:08:29.939Z,0.00
2018-09-13T03:09:29.919Z,0.00
2018-09-13T03:10:29.903Z,0.00
2018-09-13T03:11:29.895Z,0.00
2018-09-13T03:12:29.931Z,0.00
2018-09-13T03:13:29.865Z,0.00
2018-09-13T03:14:29.863Z,0.00
2018-09-13T03:15:29.847Z,0.00
2018-09-13T03:16:29.845Z,0.00
2018-09-13T03:17:29.866Z,0.00
2018-09-13T03:18:29.825Z,0.00
2018-09-13T03:19:29.806Z,0.00
2018-09-13T03:20:29.858Z,0.00
2018-09-13T03:21:29.787Z,0.00
2018-09-13T03:22:29.883Z,0.00
2018-09-13T03:23:29.762Z,0.00
2018-09-13T03:24:29.761Z,0.00
2018-09-13T03:25:29.745Z,0.00
2018-09-13T03:26:29.722Z,0.00
2018-09-13T03:27:29.760Z,0.00
2018-09-13T03:28:29.703Z,0.00
2018-09-13T03:29:29.682Z,0.00
2018-09-13T03:30:29.685Z,0.00
2018-09-13T03:31:29.663Z,0.00
2018-09-13T03:32:29.700Z,0.00
2018-09-13T03:33:29.640Z,0.00
2018-09-13T03:34:29.627Z,0.00
2018-09-13T03:35:29.625Z,0.00
2018-09-13T03:36:29.608Z,0.00
2018-09-13T03:37:29.629Z,0.00
2018-09-13T03:38:29.621Z,0.00
2018-09-13T03:39:29.566Z,0.00
2018-09-13T03:40:29.565Z,0.00
2018-09-13T03:41:29.554Z,0.00
2018-09-13T03:42:29.549Z,0.00
2018-09-13T03:43:29.562Z,0.00
2018-09-13T03:44:29.521Z,0.00
2018-09-13T03:45:29.507Z,0.00
2018-09-13T03:46:29.493Z,0.00
2018-09-13T03:47:29.486Z,0.00
2018-09-13T03:48:29.509Z,0.00
2018-09-13T03:49:29.494Z,0.00
2018-09-13T03:50:29.460Z,0.00
2018-09-13T03:51:29.438Z,0.00
2018-09-13T03:52:29.432Z,0.00
2018-09-13T03:53:29.420Z,0.00
2018-09-13T03:54:29.458Z,0.00
2018-09-13T03:55:29.393Z,0.00
2018-09-13T03:56:29.379Z,0.00
2018-09-13T03:57:29.374Z,0.00
2018-09-13T03:58:29.365Z,0.00
2018-09-13T03:59:29.383Z,0.00
2018-09-13T04:00:29.375Z,0.00
2018-09-13T04:01:29.335Z,0.00
2018-09-13T04:02:29.315Z,0.00
2018-09-13T04:03:29.476Z,0.00
2018-09-13T04:04:29.305Z,0.00
2018-09-13T04:05:29.330Z,0.00
2018-09-13T04:06:29.274Z,0.00
2018-09-13T04:07:29.274Z,0.00
2018-09-13T04:08:29.253Z,0.00
2018-09-13T04:09:29.249Z,0.00
2018-09-13T04:10:29.283Z,0.00
2018-09-13T04:11:29.240Z,0.00
2018-09-13T04:12:29.215Z,0.00
2018-09-13T04:13:29.202Z,0.00
2018-09-13T04:14:29.189Z,0.00
2018-09-13T04:15:29.221Z,0.00
2018-09-13T04:16:29.167Z,0.00
2018-09-13T04:17:29.170Z,0.00
2018-09-13T04:18:29.143Z,0.00
2018-09-13T04:19:29.138Z,0.00
2018-09-13T04:20:29.163Z,0.00
2018-09-13T04:21:29.117Z,0.00
2018-09-13T04:22:29.197Z,0.00
2018-09-13T04:23:29.103Z,0.00
2018-09-13T04:24:29.087Z,0.00
2018-09-13T04:25:29.065Z,0.00
2018-09-13T04:26:29.052Z,0.00
2018-09-13T04:27:29.085Z,0.00
2018-09-13T04:28:29.037Z,0.00
2018-09-13T04:29:29.031Z,0.00
2018-09-13T04:30:29.009Z,0.00
2018-09-13T04:31:28.999Z,0.00
2018-09-13T04:32:29.021Z,0.00
2018-09-13T04:33:28.967Z,0.00
2018-09-13T04:34:28.962Z,0.00
2018-09-13T04:35:29.089Z,0.00
2018-09-13T04:36:28.945Z,0.00
2018-09-13T04:37:28.969Z,5.62
2018-09-13T04:38:28.909Z,5.62
2018-09-13T04:39:28.908Z,5.62
2018-09-13T04:40:28.892Z,5.62
2018-09-13T04:41:28.886Z,5.62
2018-09-13T04:42:28.912Z,5.62
2018-09-13T04:43:28.859Z,5.62
2018-09-13T04:44:28.855Z,5.62
2018-09-13T04:45:28.834Z,5.62
2018-09-13T04:46:28.828Z,11.25
2018-09-13T04:47:28.850Z,11.25
2018-09-13T04:48:28.805Z,11.25
2018-09-13T04:49:28.783Z,11.25
2018-09-13T04:50:28.777Z,11.25
2018-09-13T04:51:28.780Z,16.88
2018-09-13T04:52:28.787Z,16.88
2018-09-13T04:53:28.794Z,16.88
2018-09-13T04:54:28.740Z,16.88
2018-09-13T04:55:28.722Z,16.88
2018-09-13T04:56:28.716Z,22.50
2018-09-13T04:57:28.700Z,22.50
2018-09-13T04:58:28.739Z,22.50
2018-09-13T04:59:28.696Z,22.50
2018-09-13T05:00:28.677Z,22.50
2018-09-13T05:01:28.656Z,28.12
2018-09-13T05:02:28.641Z,28.12
2018-09-13T05:03:28.673Z,28.12
2018-09-13T05:04:28.633Z,28.12
2018-09-13T05:05:28.651Z,33.75
2018-09-13T05:06:28.622Z,33.75
2018-09-13T05:07:28.611Z,33.75
2018-09-13T05:08:28.617Z,33.75
2018-09-13T05:09:28.617Z,33.75
2018-09-13T05:10:28.561Z,39.38
2018-09-13T05:11:28.551Z,39.38
2018-09-13T05:12:28.544Z,39.38
2018-09-13T05:13:28.533Z,45.00
2018-09-13T05:14:28.573Z,45.00
2018-09-13T05:15:28.509Z,45.00
2018-09-13T05:16:28.499Z,45.00
2018-09-13T05:17:28.492Z,45.00
2018-09-13T05:18:28.534Z,45.00
2018-09-13T05:19:28.543Z,50.62
2018-09-13T05:20:28.457Z,50.62
2018-09-13T05:21:28.455Z,50.62
2018-09-13T05:22:28.463Z,50.62
2018-09-13T05:23:28.421Z,50.62
2018-09-13T05:24:28.445Z,50.62
2018-09-13T05:25:28.411Z,50.62
2018-09-13T05:26:28.423Z,56.25
2018-09-13T05:27:28.419Z,56.25
2018-09-13T05:28:28.377Z,56.25
2018-09-13T05:29:28.373Z,56.25
2018-09-13T05:30:28.387Z,56.25
2018-09-13T05:31:28.363Z,56.25
2018-09-13T05:32:28.361Z,56.25
2018-09-13T05:33:28.319Z,56.25
2018-09-13T05:34:28.300Z,56.25
2018-09-13T05:35:28.323Z,56.25
2018-09-13T05:36:28.286Z,61.88
2018-09-13T05:37:28.300Z,61.88
2018-09-13T05:38:28.258Z,61.88
2018-09-13T05:39:28.285Z,61.88
2018-09-13T05:40:28.269Z,67.50
2018-09-13T05:41:28.215Z,67.50
2018-09-13T05:42:28.195Z,67.50
2018-09-13T05:43:28.228Z,67.50
2018-09-13T05:44:28.219Z,67.50
2018-09-13T05:45:28.211Z,73.12
2018-09-13T05:46:28.167Z,73.12
2018-09-13T05:47:28.145Z,73.12
2018-09-13T05:48:28.130Z,73.12
2018-09-13T05:49:28.176Z,78.75
2018-09-13T05:50:28.152Z,78.75
2018-09-13T05:51:28.172Z,84.38
2018-09-13T05:52:28.150Z,90.00
2018-09-13T05:53:28.114Z,90.00
2018-09-13T05:54:28.066Z,90.00
2018-09-13T05:55:28.109Z,95.62
2018-09-13T05:56:28.073Z,95.62
2018-09-13T05:57:28.066Z,101.25
2018-09-13T05:58:28.072Z,101.25
2018-09-13T05:59:28.018Z,101.25
2018-09-13T06:00:28.048Z,101.25
2018-09-13T06:01:28.053Z,101.25
2018-09-13T06:02:27.994Z,101.25
2018-09-13T06:03:27.970Z,112.50
2018-09-13T06:04:27.944Z,112.50
2018-09-13T06:05:27.976Z,118.12
2018-09-13T06:06:27.977Z,129.38
2018-09-13T06:07:27.920Z,151.88
2018-09-13T06:08:27.926Z,168.75
2018-09-13T06:09:27.903Z,213.75
2018-09-13T06:10:27.916Z,303.75
2018-09-13T06:11:27.979Z,354.38
2018-09-13T06:12:27.887Z,348.75
2018-09-13T06:13:27.871Z,348.75
2018-09-13T06:14:27.839Z,438.75
2018-09-13T06:15:27.903Z,343.12
2018-09-13T06:16:27.875Z,253.12
2018-09-13T06:17:27.825Z,354.38
2018-09-13T06:18:27.832Z,410.62
2018-09-13T06:19:27.867Z,258.75
2018-09-13T06:20:27.805Z,219.38
2018-09-13T06:21:27.841Z,202.50
2018-09-13T06:22:27.759Z,213.75
2018-09-13T06:23:27.759Z,225.00
2018-09-13T06:24:27.748Z,253.12
2018-09-13T06:25:27.710Z,292.50
2018-09-13T06:26:27.746Z,348.75
2018-09-13T06:27:27.750Z,331.88
2018-09-13T06:28:27.690Z,376.88
2018-09-13T06:29:27.678Z,421.88
2018-09-13T06:30:27.679Z,343.12
2018-09-13T06:31:27.728Z,292.50
2018-09-13T06:32:27.646Z,253.12
2018-09-13T06:33:27.664Z,241.88
2018-09-13T06:34:27.625Z,236.25
2018-09-13T06:35:27.617Z,236.25
2018-09-13T06:36:27.689Z,236.25
2018-09-13T06:37:27.574Z,236.25
2018-09-13T06:38:27.648Z,236.25
2018-09-13T06:39:27.573Z,241.88
2018-09-13T06:40:27.557Z,247.50
2018-09-13T06:41:27.589Z,264.38
2018-09-13T06:42:27.708Z,298.12
2018-09-13T06:43:27.593Z,303.75
2018-09-13T06:44:27.574Z,309.38
2018-09-13T06:45:27.567Z,292.50
2018-09-13T06:46:27.523Z,270.00
2018-09-13T06:47:27.521Z,264.38
2018-09-13T06:48:27.514Z,247.50
2018-09-13T06:49:27.475Z,253.12
2018-09-13T06:50:27.527Z,247.50
2018-09-13T06:51:27.462Z,258.75
2018-09-13T06:52:27.426Z,320.62
2018-09-13T06:53:27.450Z,393.75
2018-09-13T06:54:27.397Z,399.38
2018-09-13T06:55:27.408Z,348.75
2018-09-13T06:56:27.385Z,365.62
2018-09-13T06:57:27.383Z,365.62
2018-09-13T06:58:27.388Z,281.25
2018-09-13T06:59:27.413Z,230.62
2018-09-13T07:00:27.354Z,230.62
2018-09-13T07:01:27.413Z,230.62
2018-09-13T07:02:27.349Z,236.25
2018-09-13T07:03:27.393Z,275.62
2018-09-13T07:04:27.310Z,393.75
2018-09-13T07:05:27.323Z,416.25
2018-09-13T07:06:27.297Z,376.88
2018-09-13T07:07:27.305Z,264.38
2018-09-13T07:08:27.242Z,331.88
2018-09-13T07:09:27.292Z,264.38
2018-09-13T07:10:27.311Z,247.50
2018-09-13T07:11:27.216Z,286.88
2018-09-13T07:12:27.260Z,326.25
2018-09-13T07:13:27.198Z,264.38
2018-09-13T07:14:27.249Z,236.25
2018-09-13T07:15:27.156Z,236.25
2018-09-13T07:16:27.193Z,343.12
2018-09-13T07:17:27.147Z,292.50
2018-09-13T07:18:27.169Z,270.00
2018-09-13T07:19:27.110Z,258.75
2018-09-13T07:20:27.106Z,241.88
2018-09-13T07:21:27.184Z,309.38
2018-09-13T07:22:27.094Z,371.25
2018-09-13T07:23:27.178Z,337.50
2018-09-13T07:24:27.082Z,247.50
2018-09-13T07:25:27.062Z,236.25
2018-09-13T07:26:27.074Z,230.62
2018-09-13T07:27:27.026Z,236.25
2018-09-13T07:28:27.036Z,236.25
2018-09-13T07:29:27.001Z,236.25
2018-09-13T07:30:26.993Z,236.25
2018-09-13T07:31:27.038Z,253.12
2018-09-13T07:32:26.992Z,270.00
2018-09-13T07:33:26.985Z,241.88
2018-09-13T07:34:26.978Z,309.38
2018-09-13T07:35:26.985Z,343.12
2018-09-13T07:36:27.004Z,303.75
2018-09-13T07:37:26.914Z,281.25
2018-09-13T07:38:26.910Z,253.12
2018-09-13T07:39:26.952Z,258.75
2018-09-13T07:40:26.910Z,253.12
2018-09-13T07:41:26.913Z,253.12
2018-09-13T07:42:26.937Z,253.12
2018-09-13T07:43:26.839Z,258.75
2018-09-13T07:44:26.858Z,286.88
2018-09-13T07:45:26.860Z,275.62
2018-09-13T07:46:26.842Z,275.62
2018-09-13T07:47:26.863Z,298.12
2018-09-13T07:48:26.799Z,298.12
2018-09-13T07:49:26.842Z,365.62
2018-09-13T07:50:26.789Z,343.12
2018-09-13T07:51:26.782Z,309.38
2018-09-13T07:52:26.830Z,326.25
2018-09-13T07:53:26.789Z,337.50
2018-09-13T07:54:26.777Z,343.12
2018-09-13T07:55:26.732Z,343.12
2018-09-13T07:56:26.750Z,348.75
2018-09-13T07:57:26.748Z,450.00
2018-09-13T07:58:26.693Z,708.75
2018-09-13T07:59:26.718Z,343.12
2018-09-13T08:00:26.682Z,489.38
2018-09-13T08:01:26.652Z,421.88
2018-09-13T08:02:26.682Z,393.75
2018-09-13T08:03:26.658Z,371.25
2018-09-13T08:04:26.620Z,354.38
2018-09-13T08:05:26.614Z,348.75
2018-09-13T08:06:26.592Z,360.00
2018-09-13T08:07:26.628Z,348.75
2018-09-13T08:08:26.586Z,354.38
2018-09-13T08:09:26.594Z,393.75
2018-09-13T08:10:26.576Z,438.75
2018-09-13T08:11:26.566Z,410.62
2018-09-13T08:12:26.556Z,399.38
2018-09-13T08:13:26.548Z,405.00
2018-09-13T08:14:26.530Z,405.00
2018-09-13T08:15:26.492Z,405.00
2018-09-13T08:16:26.512Z,348.75
2018-09-13T08:17:26.473Z,399.38
2018-09-13T08:18:26.522Z,326.25
2018-09-13T08:19:26.464Z,315.00
2018-09-13T08:20:26.439Z,320.62
2018-09-13T08:21:26.438Z,320.62
2018-09-13T08:22:26.429Z,354.38
2018-09-13T08:23:26.438Z,360.00
2018-09-13T08:24:26.418Z,371.25
2018-09-13T08:25:26.373Z,337.50
2018-09-13T08:26:26.394Z,343.12
2018-09-13T08:27:26.359Z,399.38
2018-09-13T08:28:26.340Z,579.38
2018-09-13T08:29:26.366Z,641.25
2018-09-13T08:30:26.329Z,500.62
2018-09-13T08:31:26.304Z,500.62
2018-09-13T08:32:26.306Z,506.25
2018-09-13T08:33:26.455Z,523.12
2018-09-13T08:34:26.328Z,551.25
2018-09-13T08:35:26.310Z,489.38
2018-09-13T08:36:26.269Z,478.12
2018-09-13T08:37:26.241Z,483.75
2018-09-13T08:38:26.243Z,506.25
2018-09-13T08:39:26.274Z,511.88
2018-09-13T08:40:26.216Z,534.38
2018-09-13T08:41:26.199Z,573.75
2018-09-13T08:42:26.224Z,635.62
2018-09-13T08:43:26.185Z,663.75
2018-09-13T08:44:26.219Z,680.62
2018-09-13T08:45:26.170Z,720.00
2018-09-13T08:46:26.148Z,736.88
2018-09-13T08:47:26.169Z,871.88
2018-09-13T08:48:26.176Z,725.62
2018-09-13T08:49:26.162Z,568.12
2018-09-13T08:50:26.148Z,540.00
2018-09-13T08:51:26.088Z,511.88
2018-09-13T08:52:26.080Z,551.25
2018-09-13T08:53:26.100Z,585.00
2018-09-13T08:54:26.056Z,630.00
2018-09-13T08:55:26.088Z,613.12
2018-09-13T08:56:26.038Z,624.38
2018-09-13T08:57:26.014Z,731.25
2018-09-13T08:58:26.010Z,736.88
2018-09-13T08:59:25.998Z,731.25
2018-09-13T09:00:26.053Z,731.25
2018-09-13T09:01:26.010Z,770.62
2018-09-13T09:02:25.952Z,900.00
2018-09-13T09:03:25.974Z,472.50
2018-09-13T09:04:25.966Z,444.38
2018-09-13T09:05:25.970Z,455.62
2018-09-13T09:06:25.961Z,489.38
2018-09-13T09:07:25.909Z,517.50
2018-09-13T09:08:25.904Z,534.38
2018-09-13T09:09:25.888Z,556.88
2018-09-13T09:10:25.940Z,984.38
2018-09-13T09:11:25.868Z,2070.00
2018-09-13T09:12:25.886Z,2430.00
2018-09-13T09:13:25.924Z,1777.50
2018-09-13T09:14:25.838Z,1693.12
2018-09-13T09:15:25.813Z,2171.25
2018-09-13T09:16:25.859Z,1085.62
2018-09-13T09:17:25.870Z,826.88
2018-09-13T09:18:25.866Z,731.25
2018-09-13T09:19:25.766Z,815.62
2018-09-13T09:20:25.766Z,1119.38
2018-09-13T09:21:25.808Z,1501.88
2018-09-13T09:22:25.786Z,1468.12
2018-09-13T09:23:25.748Z,1591.88
2018-09-13T09:24:25.732Z,2643.75
2018-09-13T09:25:25.714Z,2947.50
2018-09-13T09:26:25.805Z,2936.25
2018-09-13T09:27:25.681Z,2660.62
2018-09-13T09:28:25.710Z,2823.75
2018-09-13T09:29:25.849Z,2919.38
2018-09-13T09:30:25.705Z,3071.25
2018-09-13T09:31:25.680Z,3088.12
2018-09-13T09:32:25.687Z,3037.50
2018-09-13T09:33:25.668Z,3026.25
2018-09-13T09:34:25.615Z,3065.62
2018-09-13T09:35:25.599Z,3026.25
2018-09-13T09:36:25.586Z,3009.38
2018-09-13T09:37:25.585Z,3048.75
2018-09-13T09:38:25.598Z,3082.50
2018-09-13T09:39:25.678Z,3161.25
2018-09-13T09:40:25.620Z,3166.88
2018-09-13T09:41:25.538Z,3054.38
2018-09-13T09:42:25.520Z,3076.88
2018-09-13T09:43:25.548Z,3285.00
2018-09-13T09:44:25.515Z,3183.75
2018-09-13T09:45:25.662Z,3178.12
2018-09-13T09:46:25.483Z,3189.38
2018-09-13T09:47:25.462Z,3189.38
2018-09-13T09:48:25.463Z,3217.50
2018-09-13T09:49:25.519Z,3234.38
2018-09-13T09:50:25.451Z,3138.75
2018-09-13T09:51:25.440Z,3200.62
2018-09-13T09:52:25.527Z,3240.00
2018-09-13T09:53:25.403Z,3217.50
2018-09-13T09:54:25.444Z,3110.62
2018-09-13T09:55:25.412Z,3082.50
2018-09-13T09:56:25.369Z,3228.75
2018-09-13T09:57:25.366Z,3178.12
2018-09-13T09:58:25.339Z,3043.12
2018-09-13T09:59:25.345Z,3031.88
2018-09-13T10:00:25.390Z,3217.50
2018-09-13T10:01:25.309Z,3279.38
2018-09-13T10:02:25.307Z,3127.50
2018-09-13T10:03:25.303Z,3178.12
2018-09-13T10:04:25.304Z,3223.12
2018-09-13T10:05:25.318Z,3313.12
2018-09-13T10:06:25.285Z,3318.75
2018-09-13T10:07:25.242Z,3262.50
2018-09-13T10:08:25.234Z,3256.88
2018-09-13T10:09:25.232Z,3318.75
2018-09-13T10:10:25.214Z,3369.38
2018-09-13T10:11:25.236Z,3341.25
2018-09-13T10:12:25.202Z,3262.50
2018-09-13T10:13:25.225Z,3189.38
2018-09-13T10:14:25.175Z,3206.25
2018-09-13T10:15:25.181Z,3324.38
2018-09-13T10:16:25.196Z,3481.88
2018-09-13T10:17:25.137Z,3453.75
2018-09-13T10:18:25.132Z,3380.62
2018-09-13T10:19:25.118Z,3313.12
2018-09-13T10:20:25.112Z,3330.00
2018-09-13T10:21:25.136Z,3386.25
2018-09-13T10:22:25.089Z,3425.62
2018-09-13T10:23:25.078Z,3256.88
2018-09-13T10:24:25.072Z,3256.88
2018-09-13T10:25:25.056Z,3476.25
2018-09-13T10:26:25.084Z,3538.12
2018-09-13T10:27:25.054Z,3515.62
2018-09-13T10:28:25.073Z,3431.25
2018-09-13T10:29:25.047Z,3487.50
2018-09-13T10:30:25.076Z,3577.50
2018-09-13T10:31:24.997Z,3526.88
2018-09-13T10:32:24.997Z,3448.12
2018-09-13T10:33:24.988Z,3363.75
2018-09-13T10:34:24.975Z,3470.62
2018-09-13T10:35:25.008Z,3442.50
2018-09-13T10:36:24.948Z,3391.88
2018-09-13T10:37:24.951Z,3420.00
2018-09-13T10:38:24.932Z,3403.12
2018-09-13T10:39:24.943Z,3369.38
2018-09-13T10:40:25.048Z,3425.62
2018-09-13T10:41:24.895Z,3358.12
2018-09-13T10:42:24.884Z,3397.50
2018-09-13T10:43:24.862Z,3493.12
2018-09-13T10:44:24.864Z,3459.38
2018-09-13T10:45:24.896Z,3420.00
2018-09-13T10:46:24.838Z,3448.12
2018-09-13T10:47:24.857Z,3408.75
2018-09-13T10:48:24.820Z,3566.25
2018-09-13T10:49:24.808Z,3735.00
2018-09-13T10:50:24.876Z,3639.38
2018-09-13T10:51:24.786Z,3549.38
2018-09-13T10:52:24.887Z,3510.00
2018-09-13T10:53:24.762Z,3616.88
2018-09-13T10:54:24.823Z,3555.00
2018-09-13T10:55:24.810Z,3425.62
2018-09-13T10:56:24.744Z,3301.88
2018-09-13T10:57:24.740Z,2520.00
2018-09-13T10:58:24.720Z,2255.62
2018-09-13T10:59:24.712Z,1091.25
2018-09-13T11:00:24.745Z,2250.00
2018-09-13T11:01:24.694Z,3313.12
2018-09-13T11:02:24.684Z,3330.00
2018-09-13T11:03:24.704Z,2908.12
2018-09-13T11:04:24.741Z,3616.88
2018-09-13T11:05:24.651Z,2463.75
2018-09-13T11:06:24.688Z,3543.75
2018-09-13T11:07:24.636Z,2829.38
2018-09-13T11:08:24.620Z,3065.62
2018-09-13T11:09:24.636Z,3408.75
2018-09-13T11:10:24.604Z,3223.12
2018-09-13T11:11:24.655Z,3532.50
2018-09-13T11:12:24.587Z,697.50
2018-09-13T11:13:24.592Z,770.62
2018-09-13T11:14:24.563Z,703.12
2018-09-13T11:15:24.866Z,658.12
2018-09-13T11:16:24.606Z,714.38
2018-09-13T11:17:24.526Z,646.88
2018-09-13T11:18:24.928Z,601.88
2018-09-13T11:19:24.953Z,613.12
2018-09-13T11:20:24.494Z,888.75
2018-09-13T11:21:25.331Z,703.12
2018-09-13T11:22:24.712Z,748.12
2018-09-13T11:23:24.555Z,804.38
2018-09-13T11:24:24.922Z,838.12
2018-09-13T11:25:24.845Z,810.00
2018-09-13T11:26:25.302Z,781.88
2018-09-13T11:27:24.942Z,967.50
2018-09-13T11:28:24.414Z,1091.25
2018-09-13T11:29:24.387Z,3301.88
2018-09-13T11:30:24.384Z,3330.00
2018-09-13T11:31:24.369Z,3453.75
2018-09-13T11:32:24.400Z,2655.00
2018-09-13T11:33:24.359Z,3391.88
2018-09-13T11:34:24.337Z,3375.00
2018-09-13T11:35:24.329Z,3341.25
2018-09-13T11:36:24.313Z,3375.00
2018-09-13T11:37:24.354Z,3391.88
2018-09-13T11:38:24.292Z,3459.38
2018-09-13T11:39:24.298Z,3487.50
2018-09-13T11:40:24.368Z,3448.12
2018-09-13T11:41:24.310Z,3470.62
2018-09-13T11:42:24.288Z,3487.50
2018-09-13T11:43:24.559Z,3510.00
2018-09-13T11:44:24.263Z,3549.38
2018-09-13T11:45:24.215Z,3290.62
2018-09-13T11:46:24.616Z,3425.62
2018-09-13T11:47:24.255Z,3436.88
2018-09-13T11:48:24.186Z,3498.75
2018-09-13T11:49:24.172Z,3459.38
2018-09-13T11:50:24.597Z,3335.62
2018-09-13T11:51:24.157Z,3138.75
2018-09-13T11:52:24.186Z,3150.00
2018-09-13T11:53:24.129Z,2587.50
2018-09-13T11:54:24.136Z,3335.62
2018-09-13T11:55:24.119Z,1586.25
2018-09-13T11:56:24.106Z,1473.75
2018-09-13T11:57:24.125Z,877.50
2018-09-13T11:58:24.131Z,3240.00
2018-09-13T11:59:24.069Z,3009.38
2018-09-13T12:00:24.065Z,3206.25
2018-09-13T12:01:24.054Z,3240.00
2018-09-13T12:02:24.050Z,3245.62
2018-09-13T12:03:24.093Z,3211.88
2018-09-13T12:04:24.023Z,3273.75
2018-09-13T12:05:24.020Z,3318.75
2018-09-13T12:06:24.020Z,3245.62
2018-09-13T12:07:23.993Z,2919.38
2018-09-13T12:08:24.035Z,849.38
2018-09-13T12:09:24.392Z,3206.25
2018-09-13T12:10:23.968Z,3183.75
2018-09-13T12:11:23.954Z,3195.00
2018-09-13T12:12:23.945Z,3178.12
2018-09-13T12:13:23.986Z,3290.62
2018-09-13T12:14:23.926Z,2171.25
2018-09-13T12:15:23.913Z,3391.88
2018-09-13T12:16:23.900Z,2857.50
2018-09-13T12:17:23.898Z,1068.75
2018-09-13T12:18:23.984Z,1282.50
2018-09-13T12:19:23.903Z,826.88
2018-09-13T12:20:23.874Z,821.25
2018-09-13T12:21:23.854Z,911.25
2018-09-13T12:22:23.923Z,1535.62
2018-09-13T12:23:23.830Z,826.88
2018-09-13T12:24:23.846Z,894.38
2018-09-13T12:25:23.806Z,798.75
2018-09-13T12:26:23.809Z,798.75
2018-09-13T12:27:23.808Z,855.00
2018-09-13T12:28:23.814Z,995.62
2018-09-13T12:29:23.808Z,1265.62
2018-09-13T12:30:23.752Z,1040.62
2018-09-13T12:31:23.741Z,1023.75
2018-09-13T12:32:23.734Z,1743.75
2018-09-13T12:33:23.757Z,2711.25
2018-09-13T12:34:23.705Z,1209.38
2018-09-13T12:35:23.697Z,2795.62
2018-09-13T12:36:23.676Z,2188.12
2018-09-13T12:37:23.677Z,3481.88
2018-09-13T12:38:23.698Z,1012.50
2018-09-13T12:39:23.694Z,939.38
2018-09-13T12:40:23.638Z,939.38
2018-09-13T12:41:23.662Z,922.50
2018-09-13T12:42:23.613Z,939.38
2018-09-13T12:43:23.609Z,1310.62